createdAt,value
2017-08-09T00:00:06.385Z,75.30
2017-08-09T00:02:33.357Z,75.50
2017-08-09T00:05:00.301Z,75.50
2017-08-09T00:07:27.250Z,75.60
2017-08-09T00:09:54.165Z,75.30
2017-08-09T00:12:21.149Z,75.30
2017-08-09T00:14:48.501Z,75.50
2017-08-09T00:17:15.450Z,75.50
2017-08-09T00:19:42.393Z,75.50
2017-08-09T00:22:09.334Z,75.60
2017-08-09T00:24:36.284Z,75.70
2017-08-09T00:27:03.229Z,75.80
2017-08-09T00:29:30.178Z,75.70
2017-08-09T00:31:57.125Z,75.50
2017-08-09T00:34:24.070Z,75.50
2017-08-09T00:36:51.022Z,75.70
2017-08-09T00:39:17.966Z,75.70
2017-08-09T00:41:44.905Z,75.50
2017-08-09T00:44:11.800Z,75.50
2017-08-09T00:46:38.718Z,75.50
2017-08-09T00:49:06.054Z,75.60
2017-08-09T00:51:33.005Z,75.60
2017-08-09T00:53:59.948Z,76.00
2017-08-09T00:56:26.898Z,75.70
2017-08-09T00:58:53.842Z,75.90
2017-08-09T01:01:20.785Z,76.00
2017-08-09T01:03:47.670Z,75.90
2017-08-09T01:06:14.585Z,76.00
2017-08-09T01:08:41.905Z,76.20
2017-08-09T01:11:08.785Z,76.20
2017-08-09T01:13:36.138Z,76.50
2017-08-09T01:16:03.185Z,76.50
2017-08-09T01:18:30.132Z,76.50
2017-08-09T01:20:57.082Z,76.50
2017-08-09T01:23:24.021Z,76.50
2017-08-09T01:25:50.901Z,76.30
2017-08-09T01:28:17.781Z,76.40
2017-08-09T01:30:44.701Z,76.60
2017-08-09T01:33:11.586Z,76.70
2017-08-09T01:35:38.474Z,76.70
2017-08-09T01:38:05.497Z,76.70
2017-08-09T01:40:32.441Z,76.60
2017-08-09T01:42:59.331Z,76.60
2017-08-09T01:45:26.258Z,76.60
2017-08-09T01:47:53.527Z,76.80
2017-08-09T01:50:20.437Z,76.80
2017-08-09T01:52:47.356Z,76.70
2017-08-09T01:55:14.252Z,77.00
2017-08-09T01:57:41.130Z,77.00
2017-08-09T02:00:08.054Z,77.00
2017-08-09T02:02:34.929Z,76.90
2017-08-09T02:05:01.813Z,77.00
2017-08-09T02:07:29.137Z,77.30
2017-08-09T02:09:56.122Z,77.30
2017-08-09T02:12:23.405Z,77.90
2017-08-09T02:14:50.405Z,77.90
2017-08-09T02:17:17.354Z,78.10
2017-08-09T02:19:44.233Z,78.10
2017-08-09T02:22:11.250Z,77.70
2017-08-09T02:24:38.197Z,77.80
2017-08-09T02:27:05.137Z,78.60
2017-08-09T02:29:32.065Z,79.20
2017-08-09T02:31:59.041Z,79.00
2017-08-09T02:34:26.407Z,79.80
2017-08-09T02:36:53.753Z,80.10
2017-08-09T02:39:20.695Z,80.00
2017-08-09T02:41:47.642Z,79.90
2017-08-09T02:44:14.599Z,79.60
2017-08-09T02:46:41.941Z,79.00
2017-08-09T02:49:08.896Z,79.00
2017-08-09T02:51:36.214Z,79.00
2017-08-09T02:54:03.102Z,79.00
2017-08-09T02:56:30.449Z,78.90
2017-08-09T02:58:57.385Z,78.90
2017-08-09T03:01:24.338Z,79.00
2017-08-09T03:03:51.292Z,79.10
2017-08-09T03:06:18.604Z,79.10
2017-08-09T03:08:45.581Z,79.10
2017-08-09T03:11:12.460Z,79.30
2017-08-09T03:13:39.402Z,79.40
2017-08-09T03:16:06.733Z,79.90
2017-08-09T03:18:33.613Z,79.90
2017-08-09T03:21:01.380Z,79.90
2017-08-09T03:23:28.303Z,79.70
2017-08-09T03:25:55.654Z,79.70
2017-08-09T03:28:22.962Z,80.30
2017-08-09T03:30:49.957Z,80.30
2017-08-09T03:33:17.302Z,79.70
2017-08-09T03:35:44.252Z,79.70
2017-08-09T03:38:11.134Z,79.60
2017-08-09T03:40:38.046Z,79.80
2017-08-09T03:43:04.985Z,79.90
2017-08-09T03:45:31.934Z,79.80
2017-08-09T03:47:58.814Z,79.80
2017-08-09T03:50:25.726Z,80.00
2017-08-09T03:52:52.671Z,80.30
2017-08-09T03:55:19.549Z,80.50
2017-08-09T03:57:46.506Z,80.60
2017-08-09T04:00:13.406Z,80.50
2017-08-09T04:02:40.354Z,80.50
2017-08-09T04:05:07.293Z,80.60
2017-08-09T04:07:34.260Z,80.80
2017-08-09T04:10:01.606Z,80.90
2017-08-09T04:12:28.529Z,80.90
2017-08-09T04:14:55.685Z,80.70
2017-08-09T04:17:22.573Z,80.40
2017-08-09T04:19:49.489Z,80.40
2017-08-09T04:22:16.445Z,80.40
2017-08-09T04:24:43.764Z,80.80
2017-08-09T04:27:10.737Z,80.80
2017-08-09T04:32:09.961Z,80.80
2017-08-09T04:34:36.911Z,80.70
2017-08-09T04:37:04.272Z,80.10
2017-08-09T04:39:31.618Z,80.40
2017-08-09T04:41:58.561Z,80.40
2017-08-09T04:44:25.509Z,80.30
2017-08-09T04:46:52.453Z,80.30
2017-08-09T04:49:19.401Z,80.10
2017-08-09T04:51:46.347Z,80.00
2017-08-09T04:54:13.301Z,80.30
2017-08-09T04:56:40.241Z,79.90
2017-08-09T04:59:07.193Z,79.90
2017-08-09T05:01:34.249Z,80.00
2017-08-09T05:04:01.521Z,79.70
2017-08-09T05:06:28.412Z,79.70
2017-08-09T05:08:55.689Z,79.60
2017-08-09T05:11:22.651Z,79.50
2017-08-09T05:13:49.926Z,79.90
2017-08-09T05:16:16.937Z,79.90
2017-08-09T05:18:43.814Z,80.00
2017-08-09T05:21:10.736Z,80.20
2017-08-09T05:23:37.674Z,80.30
2017-08-09T05:26:04.553Z,79.90
2017-08-09T05:28:31.470Z,79.60
2017-08-09T05:30:58.825Z,79.30
2017-08-09T05:33:25.775Z,79.30
2017-08-09T05:35:53.066Z,78.80
2017-08-09T05:38:20.069Z,78.80
2017-08-09T05:40:47.013Z,78.40
2017-08-09T05:43:14.269Z,78.10
2017-08-09T05:45:41.267Z,77.90
2017-08-09T05:48:08.147Z,77.80
2017-08-09T05:50:35.025Z,77.60
2017-08-09T05:53:02.345Z,77.20
2017-08-09T05:55:29.257Z,77.20
2017-08-09T05:57:56.173Z,77.00
2017-08-09T06:00:23.487Z,76.90
2017-08-09T06:02:50.373Z,76.90
2017-08-09T06:05:17.671Z,76.60
2017-08-09T06:07:44.589Z,76.60
2017-08-09T06:10:11.471Z,76.30
2017-08-09T06:12:38.345Z,76.10
2017-08-09T06:15:05.297Z,76.40
2017-08-09T06:17:32.247Z,76.30
2017-08-09T06:19:59.593Z,75.80
2017-08-09T06:22:26.541Z,75.80
2017-08-09T06:24:53.490Z,75.10
2017-08-09T06:27:20.761Z,74.70
2017-08-09T06:29:47.782Z,74.70
2017-08-09T06:32:14.661Z,74.70
2017-08-09T06:34:41.545Z,74.10
2017-08-09T06:37:08.521Z,74.10
2017-08-09T06:39:35.472Z,74.30
2017-08-09T06:42:02.361Z,74.30
2017-08-09T06:44:29.280Z,74.20
2017-08-09T06:46:56.623Z,73.90
2017-08-09T06:49:23.972Z,73.70
2017-08-09T06:51:50.927Z,73.70
2017-08-09T06:54:18.206Z,73.40
2017-08-09T06:56:45.095Z,73.40
2017-08-09T06:59:12.090Z,74.20
2017-08-09T07:01:39.467Z,73.10
2017-08-09T07:04:06.365Z,73.10
2017-08-09T07:06:33.306Z,73.10
2017-08-09T07:09:00.254Z,72.80
2017-08-09T07:11:27.228Z,73.00
2017-08-09T07:13:54.564Z,71.70
2017-08-09T07:16:21.441Z,71.70
2017-08-09T07:18:48.329Z,72.70
2017-08-09T07:21:15.303Z,73.70
2017-08-09T07:23:42.245Z,73.40
2017-08-09T07:26:09.127Z,72.70
2017-08-09T07:28:36.696Z,71.60
2017-08-09T07:31:03.707Z,71.10
2017-08-09T07:33:30.649Z,70.50
2017-08-09T07:35:57.562Z,69.70
2017-08-09T07:38:24.451Z,68.90
2017-08-09T07:40:51.807Z,68.70
2017-08-09T07:43:18.738Z,68.70
2017-08-09T07:45:45.644Z,69.30
2017-08-09T07:48:12.547Z,70.80
2017-08-09T07:50:39.545Z,71.50
2017-08-09T07:53:06.464Z,71.90
2017-08-09T07:55:33.433Z,71.90
2017-08-09T07:58:00.383Z,71.00
2017-08-09T08:00:27.334Z,70.20
2017-08-09T08:02:54.614Z,68.90
2017-08-09T08:05:21.629Z,68.90
2017-08-09T08:07:48.534Z,68.80
2017-08-09T08:10:15.466Z,68.80
2017-08-09T08:12:42.485Z,69.10
2017-08-09T08:15:09.828Z,67.90
2017-08-09T08:17:36.721Z,67.90
2017-08-09T08:20:03.714Z,67.70
2017-08-09T08:22:30.669Z,67.30
2017-08-09T08:24:57.946Z,67.30
2017-08-09T08:27:24.873Z,67.30
2017-08-09T08:29:52.222Z,67.90
2017-08-09T08:32:19.111Z,68.00
2017-08-09T08:34:46.115Z,67.50
2017-08-09T08:37:13.064Z,68.10
2017-08-09T08:39:39.946Z,67.50
2017-08-09T08:42:06.953Z,68.00
2017-08-09T08:44:33.845Z,67.40
2017-08-09T08:47:00.742Z,66.20
2017-08-09T08:49:27.702Z,66.60
2017-08-09T08:51:55.042Z,66.10
2017-08-09T08:54:22.037Z,66.10
2017-08-09T08:56:48.957Z,66.00
2017-08-09T08:59:16.289Z,65.20
2017-08-09T09:01:43.178Z,65.20
2017-08-09T09:04:10.187Z,65.30
2017-08-09T09:06:37.482Z,65.10
2017-08-09T09:09:04.761Z,65.10
2017-08-09T09:11:31.741Z,64.30
2017-08-09T09:13:58.689Z,63.90
2017-08-09T09:16:25.643Z,63.80
2017-08-09T09:18:52.957Z,63.90
2017-08-09T09:21:19.956Z,63.90
2017-08-09T09:23:47.298Z,63.70
2017-08-09T09:26:14.270Z,63.80
2017-08-09T09:28:41.183Z,62.80
2017-08-09T09:31:08.473Z,62.60
2017-08-09T09:33:35.877Z,62.60
2017-08-09T09:36:03.133Z,62.50
2017-08-09T09:38:30.101Z,62.10
2017-08-09T09:40:57.045Z,61.50
2017-08-09T09:43:24.182Z,61.80
2017-08-09T09:45:51.064Z,61.30
2017-08-09T09:48:17.990Z,61.50
2017-08-09T09:50:45.279Z,61.90
2017-08-09T09:53:12.198Z,61.90
2017-08-09T09:55:39.537Z,60.60
2017-08-09T09:58:06.488Z,60.70
2017-08-09T10:00:33.371Z,61.40
2017-08-09T10:03:00.313Z,61.60
2017-08-09T10:05:27.188Z,62.50
2017-08-09T10:07:54.170Z,62.80
2017-08-09T10:10:21.085Z,63.40
2017-08-09T10:12:47.961Z,62.80
2017-08-09T10:15:14.941Z,63.20
2017-08-09T10:17:41.829Z,63.20
2017-08-09T10:20:08.733Z,63.10
2017-08-09T10:22:35.746Z,62.50
2017-08-09T10:25:02.694Z,62.20
2017-08-09T10:27:29.654Z,62.70
2017-08-09T10:29:56.997Z,62.20
2017-08-09T10:32:23.874Z,62.20
2017-08-09T10:34:50.834Z,62.00
2017-08-09T10:37:17.833Z,60.60
2017-08-09T10:39:44.782Z,60.20
2017-08-09T10:42:11.775Z,61.20
2017-08-09T10:44:38.688Z,60.30
2017-08-09T10:47:06.028Z,62.40
2017-08-09T10:49:32.909Z,62.40
2017-08-09T10:51:59.829Z,63.10
2017-08-09T10:54:27.109Z,61.80
2017-08-09T10:56:54.021Z,61.80
2017-08-09T10:59:20.969Z,62.20
2017-08-09T11:01:47.849Z,63.40
2017-08-09T11:04:14.790Z,63.00
2017-08-09T11:06:41.715Z,61.90
2017-08-09T11:09:09.007Z,60.70
2017-08-09T11:11:36.289Z,60.40
2017-08-09T11:14:03.248Z,60.40
2017-08-09T11:16:30.142Z,59.90
2017-08-09T11:18:57.026Z,59.00
2017-08-09T11:21:23.951Z,58.70
2017-08-09T11:23:51.229Z,58.00
2017-08-09T11:26:18.120Z,58.00
2017-08-09T11:28:45.128Z,59.20
2017-08-09T11:31:12.009Z,59.60
2017-08-09T11:33:38.989Z,61.30
2017-08-09T11:36:06.334Z,59.70
2017-08-09T11:38:34.450Z,59.40
2017-08-09T11:41:01.399Z,59.40
2017-08-09T11:43:28.333Z,58.50
2017-08-09T11:45:55.227Z,58.40
2017-08-09T11:48:22.225Z,58.60
2017-08-09T11:50:49.146Z,59.50
2017-08-09T11:53:16.521Z,59.40
2017-08-09T11:55:43.433Z,59.40
2017-08-09T11:58:10.385Z,59.20
2017-08-09T12:00:37.270Z,58.10
2017-08-09T12:03:04.222Z,58.50
2017-08-09T12:05:31.221Z,57.80
2017-08-09T12:07:58.172Z,57.00
2017-08-09T12:10:25.116Z,57.90
2017-08-09T12:12:52.091Z,57.90
2017-08-09T12:15:19.417Z,58.30
2017-08-09T12:17:46.381Z,58.30
2017-08-09T12:20:13.726Z,57.90
2017-08-09T12:22:40.671Z,57.90
2017-08-09T12:25:07.553Z,58.10
2017-08-09T12:27:34.457Z,57.30
2017-08-09T12:30:01.413Z,57.00
2017-08-09T12:32:28.354Z,57.70
2017-08-09T12:34:55.305Z,57.50
2017-08-09T12:37:22.657Z,56.30
2017-08-09T12:39:49.600Z,56.30
2017-08-09T12:42:16.550Z,56.50
2017-08-09T12:44:43.503Z,55.40
2017-08-09T12:47:10.845Z,55.20
2017-08-09T12:49:37.830Z,55.20
2017-08-09T12:52:05.141Z,56.00
2017-08-09T12:54:32.050Z,56.00
2017-08-09T12:56:58.944Z,56.00
2017-08-09T12:59:25.868Z,57.00
2017-08-09T13:01:52.886Z,57.20
2017-08-09T13:04:19.825Z,56.60
2017-08-09T13:06:46.743Z,57.50
2017-08-09T13:09:14.062Z,57.60
2017-08-09T13:11:41.025Z,57.60
2017-08-09T13:14:07.988Z,57.00
2017-08-09T13:16:35.381Z,57.10
2017-08-09T13:19:02.277Z,57.10
2017-08-09T13:21:29.197Z,56.70
2017-08-09T13:23:56.174Z,56.60
2017-08-09T13:26:23.053Z,55.80
2017-08-09T13:28:49.977Z,56.30
2017-08-09T13:31:17.265Z,56.00
2017-08-09T13:33:44.173Z,56.00
2017-08-09T13:36:11.521Z,55.30
2017-08-09T13:38:38.397Z,55.30
2017-08-09T13:41:05.278Z,54.70
2017-08-09T13:43:32.253Z,54.80
2017-08-09T13:45:59.202Z,55.30
2017-08-09T13:48:26.149Z,55.20
2017-08-09T13:50:53.093Z,55.70
2017-08-09T13:53:20.041Z,55.60
2017-08-09T13:55:46.985Z,55.30
2017-08-09T13:58:13.941Z,55.10
2017-08-09T14:00:41.259Z,54.40
2017-08-09T14:03:08.649Z,54.60
2017-08-09T14:05:35.585Z,54.60
2017-08-09T14:08:02.545Z,55.00
2017-08-09T14:10:29.893Z,55.10
2017-08-09T14:12:56.861Z,55.10
2017-08-09T14:15:24.193Z,54.80
2017-08-09T14:17:51.082Z,54.80
2017-08-09T14:20:18.034Z,54.30
2017-08-09T14:22:44.957Z,55.10
2017-08-09T14:25:12.297Z,54.80
2017-08-09T14:27:39.626Z,55.10
2017-08-09T14:30:06.603Z,55.10
2017-08-09T14:32:33.536Z,54.20
2017-08-09T14:35:00.507Z,53.90
2017-08-09T14:37:27.797Z,54.20
2017-08-09T14:39:56.594Z,54.20
2017-08-09T14:42:23.533Z,54.30
2017-08-09T14:44:50.441Z,54.10
2017-08-09T14:47:17.737Z,54.50
2017-08-09T14:49:44.687Z,54.50
2017-08-09T14:52:11.568Z,54.20
2017-08-09T14:54:38.513Z,53.60
2017-08-09T14:57:05.435Z,52.40
2017-08-09T14:59:32.313Z,53.30
2017-08-09T15:01:59.600Z,53.90
2017-08-09T15:04:26.521Z,53.90
2017-08-09T15:06:53.808Z,53.30
2017-08-09T15:09:20.705Z,53.30
2017-08-09T15:11:47.658Z,53.00
2017-08-09T15:14:14.535Z,53.00
2017-08-09T15:16:41.429Z,52.60
2017-08-09T15:19:08.434Z,52.90
2017-08-09T15:21:35.336Z,53.00
2017-08-09T15:24:02.221Z,52.50
2017-08-09T15:26:29.171Z,52.50
2017-08-09T15:28:56.059Z,51.50
2017-08-09T15:31:22.946Z,52.70
2017-08-09T15:33:49.869Z,52.50
2017-08-09T15:36:17.149Z,51.10
2017-08-09T15:38:44.047Z,51.10
2017-08-09T15:41:10.994Z,51.10
2017-08-09T15:43:37.873Z,51.50
2017-08-09T15:46:04.797Z,51.60
2017-08-09T15:48:32.124Z,51.70
2017-08-09T15:50:59.005Z,51.70
2017-08-09T15:53:26.332Z,52.10
2017-08-09T15:55:53.281Z,52.00
2017-08-09T15:58:20.166Z,52.20
2017-08-09T16:00:47.054Z,52.90
2017-08-09T16:03:13.972Z,53.10
2017-08-09T16:05:40.896Z,52.40
2017-08-09T16:08:07.773Z,52.90
2017-08-09T16:10:34.721Z,52.40
2017-08-09T16:13:01.711Z,52.50
2017-08-09T16:15:28.653Z,52.40
2017-08-09T16:17:56.029Z,52.00
2017-08-09T16:20:23.062Z,52.00
2017-08-09T16:22:50.418Z,52.40
2017-08-09T16:25:17.768Z,52.00
2017-08-09T16:27:44.654Z,52.00
2017-08-09T16:30:11.534Z,51.10
2017-08-09T16:32:38.500Z,50.40
2017-08-09T16:35:05.389Z,50.70
2017-08-09T16:37:32.374Z,50.30
2017-08-09T16:39:59.341Z,50.50
2017-08-09T16:42:26.225Z,50.60
2017-08-09T16:44:53.142Z,50.40
2017-08-09T16:47:20.465Z,49.00
2017-08-09T16:49:47.434Z,49.00
2017-08-09T16:52:14.389Z,49.00
2017-08-09T16:54:41.310Z,49.60
2017-08-09T16:57:08.281Z,50.00
2017-08-09T16:59:35.630Z,50.00
2017-08-09T17:02:02.556Z,50.00
2017-08-09T17:04:29.534Z,49.50
2017-08-09T17:06:56.824Z,49.70
2017-08-09T17:09:23.745Z,49.70
2017-08-09T17:11:51.025Z,50.80
2017-08-09T17:14:17.922Z,50.80
2017-08-09T17:16:44.873Z,51.40
2017-08-09T17:19:11.827Z,51.70
2017-08-09T17:21:39.105Z,52.40
2017-08-09T17:24:06.022Z,52.40
2017-08-09T17:26:32.913Z,53.00
2017-08-09T17:28:59.809Z,53.30
2017-08-09T17:31:26.749Z,53.50
2017-08-09T17:33:53.641Z,53.40
2017-08-09T17:36:20.525Z,53.90
2017-08-09T17:38:47.502Z,54.30
2017-08-09T17:41:14.851Z,54.20
2017-08-09T17:43:41.797Z,54.20
2017-08-09T17:46:08.751Z,54.60
2017-08-09T17:48:36.093Z,55.70
2017-08-09T17:51:02.973Z,55.70
2017-08-09T17:53:29.901Z,55.50
2017-08-09T17:55:57.173Z,56.00
2017-08-09T17:58:24.064Z,56.00
2017-08-09T18:00:51.039Z,55.90
2017-08-09T18:03:18.330Z,55.90
2017-08-09T18:05:45.240Z,55.90
2017-08-09T18:08:12.217Z,55.90
2017-08-09T18:10:39.107Z,55.10
2017-08-09T18:13:05.989Z,54.30
2017-08-09T18:15:32.942Z,54.00
2017-08-09T18:17:59.913Z,53.70
2017-08-09T18:20:27.199Z,53.90
2017-08-09T18:22:54.121Z,53.90
2017-08-09T18:25:21.457Z,54.50
2017-08-09T18:27:48.457Z,54.50
2017-08-09T18:30:15.369Z,54.90
2017-08-09T18:32:42.655Z,55.70
2017-08-09T18:35:09.534Z,55.70
2017-08-09T18:37:36.542Z,55.60
2017-08-09T18:40:03.440Z,55.90
2017-08-09T18:42:30.396Z,55.90
2017-08-09T18:44:57.337Z,56.30
2017-08-09T18:47:24.286Z,56.50
2017-08-09T18:49:51.472Z,56.80
2017-08-09T18:52:18.894Z,57.10
2017-08-09T18:54:45.838Z,57.60
2017-08-09T18:57:12.781Z,57.90
2017-08-09T18:59:39.737Z,58.10
2017-08-09T19:02:06.929Z,57.90
2017-08-09T19:04:33.814Z,58.10
2017-08-09T19:07:00.721Z,58.10
2017-08-09T19:09:27.601Z,57.90
2017-08-09T19:11:54.525Z,58.00
2017-08-09T19:14:21.406Z,58.20
2017-08-09T19:16:48.384Z,58.40
2017-08-09T19:19:15.400Z,58.30
2017-08-09T19:21:42.296Z,58.60
2017-08-09T19:24:09.193Z,58.70
2017-08-09T19:26:36.142Z,58.80
2017-08-09T19:29:03.089Z,59.10
2017-08-09T19:31:29.983Z,59.20
2017-08-09T19:33:56.891Z,59.00
2017-08-09T19:36:24.241Z,58.70
2017-08-09T19:38:51.126Z,58.70
2017-08-09T19:41:18.013Z,58.80
2017-08-09T19:43:44.979Z,58.80
2017-08-09T19:46:11.965Z,58.80
2017-08-09T19:48:38.860Z,58.80
2017-08-09T19:51:05.771Z,58.60
2017-08-09T19:53:32.657Z,62.10
2017-08-09T19:55:59.648Z,62.90
2017-08-09T19:58:26.617Z,62.80
2017-08-09T20:00:53.597Z,62.80
2017-08-09T20:03:20.509Z,62.90
2017-08-09T20:05:47.493Z,63.10
2017-08-09T20:08:14.845Z,62.90
2017-08-09T20:10:41.813Z,62.90
2017-08-09T20:13:09.154Z,63.20
2017-08-09T20:15:36.108Z,63.20
2017-08-09T20:18:03.432Z,63.00
2017-08-09T20:20:30.344Z,63.00
2017-08-09T20:22:57.246Z,63.80
2017-08-09T20:25:24.167Z,63.20
2017-08-09T20:27:51.141Z,63.20
2017-08-09T20:30:18.081Z,63.40
2017-08-09T20:32:45.011Z,63.40
2017-08-09T20:35:11.970Z,63.60
2017-08-09T20:37:38.855Z,63.40
2017-08-09T20:40:05.767Z,63.10
2017-08-09T20:42:32.715Z,63.10
2017-08-09T20:44:59.594Z,62.80
2017-08-09T20:47:26.517Z,63.30
2017-08-09T20:49:53.832Z,63.30
2017-08-09T20:52:20.805Z,63.30
2017-08-09T20:54:47.686Z,63.20
2017-08-09T20:57:14.702Z,63.20
2017-08-09T20:59:41.591Z,63.20
2017-08-09T21:02:08.474Z,63.30
2017-08-09T21:04:35.405Z,63.20
2017-08-09T21:07:02.290Z,62.80
2017-08-09T21:09:29.569Z,62.90
2017-08-09T21:11:56.519Z,62.90
2017-08-09T21:14:23.399Z,63.90
2017-08-09T21:16:50.368Z,64.90
2017-08-09T21:19:17.313Z,66.50
2017-08-09T21:21:44.193Z,66.50
2017-08-09T21:24:11.118Z,68.10
2017-08-09T21:26:38.449Z,68.80
2017-08-09T21:29:05.328Z,68.80
2017-08-09T21:31:32.668Z,71.50
2017-08-09T21:33:59.609Z,71.50
2017-08-09T21:36:26.495Z,73.70
2017-08-09T21:38:53.553Z,74.30
2017-08-09T21:41:20.470Z,74.40
2017-08-09T21:43:47.750Z,75.50
2017-08-09T21:46:14.633Z,75.50
2017-08-09T21:48:41.649Z,75.40
2017-08-09T21:51:08.529Z,74.70
2017-08-09T21:53:35.491Z,72.50
2017-08-09T21:56:02.849Z,71.80
2017-08-09T21:58:29.788Z,71.80
2017-08-09T22:00:56.814Z,71.50
2017-08-09T22:03:23.785Z,72.30
2017-08-09T22:05:50.671Z,72.30
2017-08-09T22:08:17.549Z,72.70
2017-08-09T22:10:44.570Z,72.40
2017-08-09T22:13:11.445Z,72.20
2017-08-09T22:15:38.413Z,72.20
2017-08-09T22:18:05.341Z,72.40
2017-08-09T22:20:32.315Z,72.40
2017-08-09T22:22:59.686Z,73.20
2017-08-09T22:25:27.025Z,73.20
2017-08-09T22:27:53.906Z,73.10
2017-08-09T22:30:20.827Z,73.30
2017-08-09T22:32:48.269Z,73.30
2017-08-09T22:35:15.248Z,73.30
2017-08-09T22:37:42.152Z,73.30
2017-08-09T22:40:09.173Z,73.30
2017-08-09T22:42:36.052Z,73.70
2017-08-09T22:45:02.937Z,74.50
2017-08-09T22:47:29.945Z,75.00
2017-08-09T22:49:56.893Z,75.80
2017-08-09T22:52:23.841Z,75.30
2017-08-09T22:54:50.765Z,76.50
2017-08-09T22:57:17.734Z,77.80
2017-08-09T22:59:44.623Z,78.20
2017-08-09T23:02:11.537Z,79.10
2017-08-09T23:04:38.818Z,80.10
2017-08-09T23:07:05.741Z,80.10
2017-08-09T23:09:33.084Z,80.00
2017-08-09T23:12:00.033Z,80.00
2017-08-09T23:14:26.974Z,79.80
2017-08-09T23:16:53.981Z,80.80
2017-08-09T23:19:20.967Z,81.30
2017-08-09T23:21:47.918Z,81.60
2017-08-09T23:24:14.860Z,81.80
2017-08-09T23:26:41.809Z,81.70
2017-08-09T23:29:08.695Z,81.30
2017-08-09T23:31:35.601Z,79.60
2017-08-09T23:34:02.545Z,80.80
2017-08-09T23:36:29.604Z,81.30
2017-08-09T23:38:56.921Z,82.90
2017-08-09T23:41:24.206Z,83.00
2017-08-09T23:43:51.148Z,83.00
2017-08-09T23:46:18.097Z,82.30
2017-08-09T23:48:45.053Z,82.10
2017-08-09T23:51:12.404Z,81.50
2017-08-09T23:53:39.346Z,81.50
2017-08-09T23:56:06.225Z,81.20
2017-08-09T23:58:33.153Z,81.70
